^^
Saratoga-Weather Station Historical Data
Daily Summary for August 28, 2021 Units:  Both    English   Metric
Daily Weekly Monthly Yearly Custom
  High: Low: Average:
Temperature: 77.7 °F /  25.4 °C 63.3 °F /  17.4 °C 70 °F /  21.1 °C
Dew Point: 66.6 °F /  19.2 °C 61.2 °F /  16.2 °C 63.1 °F /  17.3 °C
Humidity: 93% 58% 80%
Wind Speed: 8.9mph /  14.3km/h - 1.4mph /  2.3km/h
Wind Gust: 12mph /  19.3km/h - -
Wind- - SW
Pressure: 29.9 in /  1013.2 hPa 29.9 in /  1011.2 hPa -
Precipitation: 0 in /  0.0 mm    
Historical Graphs
 
 
Tabular Data for August 28, 2021
Time Temperature Dew Point Pressure Wind Wind Speed Wind Gust Humidity Rainfall Rate (Hourly) solar
00:04 65.8 °F /  18.8 °C 61.5 °F /  16.4 °C 29.9in /  1012.9hPa Calm     86% 0in /  0.0mm 0 W/m2
00:09 65.7 °F /  18.7 °C 61.3 °F /  16.3 °C 29.9in /  1012.9hPa Calm     86% 0in /  0.0mm 0 W/m2
00:14 65.7 °F /  18.7 °C 61.3 °F /  16.3 °C 29.9in /  1012.9hPa Calm     86% 0in /  0.0mm 0 W/m2
00:19 65.5 °F /  18.6 °C 61.2 °F /  16.2 °C 29.9in /  1012.9hPa Calm     86% 0in /  0.0mm 0 W/m2
00:24 65.5 °F /  18.6 °C 61.5 °F /  16.4 °C 29.9in /  1012.9hPa Calm     87% 0in /  0.0mm 0 W/m2
00:29 65.7 °F /  18.7 °C 61.7 °F /  16.5 °C 29.9in /  1012.9hPa Calm     87% 0in /  0.0mm 0 W/m2
00:34 65.7 °F /  18.7 °C 61.7 °F /  16.5 °C 29.9in /  1012.9hPa South 0.9mph /  1.4km/h 1mph /  1.6km/h 87% 0in /  0.0mm 0 W/m2
00:39 65.7 °F /  18.7 °C 61.7 °F /  16.5 °C 29.9in /  1012.9hPa Calm     87% 0in /  0.0mm 0 W/m2
00:44 65.7 °F /  18.7 °C 61.7 °F /  16.5 °C 29.9in /  1012.9hPa Calm   1mph /  1.6km/h 87% 0in /  0.0mm 0 W/m2
00:49 65.7 °F /  18.7 °C 61.7 °F /  16.5 °C 29.9in /  1012.9hPa Calm     87% 0in /  0.0mm 0 W/m2
00:54 65.5 °F /  18.6 °C 61.9 °F /  16.6 °C 29.9in /  1012.9hPa Calm   1mph /  1.6km/h 88% 0in /  0.0mm 0 W/m2
01:00 65.5 °F /  18.6 °C 61.9 °F /  16.6 °C 29.9in /  1012.9hPa Calm     88% 0in /  0.0mm 0 W/m2
01:05 65.5 °F /  18.6 °C 61.9 °F /  16.6 °C 29.9in /  1012.5hPa South 2mph /  3.2km/h 2mph /  3.2km/h 88% 0in /  0.0mm 0 W/m2
01:10 65.3 °F /  18.5 °C 62.1 °F /  16.7 °C 29.9in /  1012.5hPa Calm   1mph /  1.6km/h 89% 0in /  0.0mm 0 W/m2
01:15 65.1 °F /  18.4 °C 61.9 °F /  16.6 °C 29.9in /  1012.5hPa Calm     89% 0in /  0.0mm 0 W/m2
01:20 65.1 °F /  18.4 °C 61.9 °F /  16.6 °C 29.9in /  1012.5hPa Calm     89% 0in /  0.0mm 0 W/m2
01:25 65.1 °F /  18.4 °C 61.9 °F /  16.6 °C 29.9in /  1012.5hPa Calm     89% 0in /  0.0mm 0 W/m2
01:30 64.9 °F /  18.3 °C 61.7 °F /  16.5 °C 29.9in /  1012.2hPa Calm     89% 0in /  0.0mm 0 W/m2
01:35 64.9 °F /  18.3 °C 61.7 °F /  16.5 °C 29.9in /  1012.2hPa Calm     89% 0in /  0.0mm 0 W/m2
01:40 64.9 °F /  18.3 °C 61.9 °F /  16.6 °C 29.9in /  1012.2hPa Calm     90% 0in /  0.0mm 0 W/m2
01:45 64.9 °F /  18.3 °C 61.9 °F /  16.6 °C 29.9in /  1012.2hPa Calm     90% 0in /  0.0mm 0 W/m2
01:50 64.8 °F /  18.2 °C 61.7 °F /  16.5 °C 29.9in /  1012.2hPa Calm     90% 0in /  0.0mm 0 W/m2
01:55 64.8 °F /  18.2 °C 61.7 °F /  16.5 °C 29.9in /  1012.2hPa Calm     90% 0in /  0.0mm 0 W/m2
02:00 64.8 °F /  18.2 °C 61.7 °F /  16.5 °C 29.9in /  1012.2hPa Calm     90% 0in /  0.0mm 0 W/m2
02:05 64.8 °F /  18.2 °C 62.1 °F /  16.7 °C 29.9in /  1012.2hPa Calm     91% 0in /  0.0mm 0 W/m2
02:10 64.8 °F /  18.2 °C 62.1 °F /  16.7 °C 29.9in /  1012.2hPa Calm     91% 0in /  0.0mm 0 W/m2
02:15 64.6 °F /  18.1 °C 61.9 °F /  16.6 °C 29.9in /  1012.2hPa Calm     91% 0in /  0.0mm 0 W/m2
02:20 64.6 °F /  18.1 °C 61.9 °F /  16.6 °C 29.9in /  1012.2hPa Calm     91% 0in /  0.0mm 0 W/m2
02:25 64.4 °F /  18 °C 61.7 °F /  16.5 °C 29.9in /  1012.2hPa Calm     91% 0in /  0.0mm 0 W/m2
02:30 64.2 °F /  17.9 °C 61.5 °F /  16.4 °C 29.9in /  1012.5hPa Calm     91% 0in /  0.0mm 0 W/m2
02:35 64.2 °F /  17.9 °C 61.5 °F /  16.4 °C 29.9in /  1012.2hPa Calm     91% 0in /  0.0mm 0 W/m2
02:40 64.2 °F /  17.9 °C 61.5 °F /  16.4 °C 29.9in /  1012.2hPa Calm     91% 0in /  0.0mm 0 W/m2
02:45 64 °F /  17.8 °C 61.3 °F /  16.3 °C 29.9in /  1012.2hPa Calm     91% 0in /  0.0mm 0 W/m2
02:50 64 °F /  17.8 °C 61.3 °F /  16.3 °C 29.9in /  1012.2hPa Calm     91% 0in /  0.0mm 0 W/m2
02:55 64 °F /  17.8 °C 61.3 °F /  16.3 °C 29.9in /  1012.2hPa Calm     91% 0in /  0.0mm 0 W/m2
03:00 64 °F /  17.8 °C 61.7 °F /  16.5 °C 29.9in /  1012.2hPa Calm     92% 0in /  0.0mm 0 W/m2
03:05 64 °F /  17.8 °C 61.7 °F /  16.5 °C 29.9in /  1012.2hPa Calm     92% 0in /  0.0mm 0 W/m2
03:10 63.9 °F /  17.7 °C 61.5 °F /  16.4 °C 29.9in /  1012.2hPa Calm     92% 0in /  0.0mm 0 W/m2
03:15 63.9 °F /  17.7 °C 61.5 °F /  16.4 °C 29.9in /  1012.2hPa Calm     92% 0in /  0.0mm 0 W/m2
03:20 63.9 °F /  17.7 °C 61.5 °F /  16.4 °C 29.9in /  1012.5hPa Calm     92% 0in /  0.0mm 0 W/m2
03:25 63.9 °F /  17.7 °C 61.5 °F /  16.4 °C 29.9in /  1012.2hPa Calm     92% 0in /  0.0mm 0 W/m2
03:30 63.9 °F /  17.7 °C 61.5 °F /  16.4 °C 29.9in /  1012.2hPa Calm     92% 0in /  0.0mm 0 W/m2
03:35 64 °F /  17.8 °C 61.7 °F /  16.5 °C 29.9in /  1012.2hPa Calm     92% 0in /  0.0mm 0 W/m2
03:40 64 °F /  17.8 °C 61.7 °F /  16.5 °C 29.9in /  1012.2hPa Calm     92% 0in /  0.0mm 0 W/m2
03:45 64 °F /  17.8 °C 61.7 °F /  16.5 °C 29.9in /  1012.2hPa Calm     92% 0in /  0.0mm 0 W/m2
03:50 64 °F /  17.8 °C 61.7 °F /  16.5 °C 29.9in /  1012.2hPa Calm   1mph /  1.6km/h 92% 0in /  0.0mm 0 W/m2
03:55 64 °F /  17.8 °C 61.7 °F /  16.5 °C 29.9in /  1012.2hPa SW 0.9mph /  1.4km/h 2mph /  3.2km/h 92% 0in /  0.0mm 0 W/m2
04:00 64 °F /  17.8 °C 61.7 °F /  16.5 °C 29.9in /  1012.2hPa Calm     92% 0in /  0.0mm 0 W/m2
04:05 64 °F /  17.8 °C 61.7 °F /  16.5 °C 29.9in /  1012.2hPa Calm   2mph /  3.2km/h 92% 0in /  0.0mm 0 W/m2
04:10 64 °F /  17.8 °C 61.7 °F /  16.5 °C 29.9in /  1012.2hPa Calm     92% 0in /  0.0mm 0 W/m2
04:15 64 °F /  17.8 °C 61.7 °F /  16.5 °C 29.9in /  1012.2hPa Calm     92% 0in /  0.0mm 0 W/m2
04:20 64 °F /  17.8 °C 61.7 °F /  16.5 °C 29.9in /  1012.2hPa Calm     92% 0in /  0.0mm 0 W/m2
04:25 64 °F /  17.8 °C 61.7 °F /  16.5 °C 29.9in /  1011.9hPa Calm     92% 0in /  0.0mm 0 W/m2
04:30 63.9 °F /  17.7 °C 61.5 °F /  16.4 °C 29.9in /  1011.9hPa Calm     92% 0in /  0.0mm 0 W/m2
04:35 63.9 °F /  17.7 °C 61.5 °F /  16.4 °C 29.9in /  1011.9hPa Calm     92% 0in /  0.0mm 0 W/m2
04:40 63.7 °F /  17.6 °C 61.3 °F /  16.3 °C 29.9in /  1011.9hPa Calm     92% 0in /  0.0mm 0 W/m2
04:45 63.7 °F /  17.6 °C 61.3 °F /  16.3 °C 29.9in /  1011.9hPa Calm     92% 0in /  0.0mm 0 W/m2
04:50 63.5 °F /  17.5 °C 61.2 °F /  16.2 °C 29.9in /  1011.9hPa Calm     92% 0in /  0.0mm 0 W/m2
04:55 63.3 °F /  17.4 °C 61.3 °F /  16.3 °C 29.9in /  1011.9hPa Calm     93% 0in /  0.0mm 0 W/m2
05:00 63.3 °F /  17.4 °C 61.3 °F /  16.3 °C 29.9in /  1011.9hPa Calm     93% 0in /  0.0mm 0 W/m2
05:05 63.3 °F /  17.4 °C 61.3 °F /  16.3 °C 29.9in /  1011.9hPa Calm     93% 0in /  0.0mm 0 W/m2
05:10 63.3 °F /  17.4 °C 61.3 °F /  16.3 °C 29.9in /  1011.9hPa Calm     93% 0in /  0.0mm 0 W/m2
05:15 63.3 °F /  17.4 °C 61.3 °F /  16.3 °C 29.9in /  1011.9hPa Calm     93% 0in /  0.0mm 0 W/m2
05:20 63.3 °F /  17.4 °C 61.3 °F /  16.3 °C 29.9in /  1011.9hPa Calm     93% 0in /  0.0mm 0 W/m2
05:25 63.3 °F /  17.4 °C 61.3 °F /  16.3 °C 29.9in /  1011.9hPa SE 0.9mph /  1.4km/h 2mph /  3.2km/h 93% 0in /  0.0mm 0 W/m2
05:30 63.3 °F /  17.4 °C 61.3 °F /  16.3 °C 29.9in /  1012.2hPa Calm     93% 0in /  0.0mm 0 W/m2
05:35 63.3 °F /  17.4 °C 61.3 °F /  16.3 °C 29.9in /  1011.9hPa Calm   1mph /  1.6km/h 93% 0in /  0.0mm 0 W/m2
05:40 63.5 °F /  17.5 °C 61.5 °F /  16.4 °C 29.9in /  1011.9hPa Calm     93% 0in /  0.0mm 0 W/m2
05:45 63.5 °F /  17.5 °C 61.5 °F /  16.4 °C 29.9in /  1011.9hPa Calm     93% 0in /  0.0mm 0 W/m2
05:50 63.5 °F /  17.5 °C 61.5 °F /  16.4 °C 29.9in /  1011.9hPa Calm   1mph /  1.6km/h 93% 0in /  0.0mm 5 W/m2
05:55 63.5 °F /  17.5 °C 61.5 °F /  16.4 °C 29.9in /  1011.9hPa Calm     93% 0in /  0.0mm 5 W/m2
06:00 63.5 °F /  17.5 °C 61.5 °F /  16.4 °C 29.9in /  1011.9hPa Calm     93% 0in /  0.0mm 7 W/m2
06:05 63.5 °F /  17.5 °C 61.5 °F /  16.4 °C 29.9in /  1011.9hPa Calm     93% 0in /  0.0mm 12 W/m2
06:10 63.5 °F /  17.5 °C 61.5 °F /  16.4 °C 29.9in /  1011.9hPa Calm     93% 0in /  0.0mm 21 W/m2
06:15 63.7 °F /  17.6 °C 61.7 °F /  16.5 °C 29.9in /  1011.9hPa SE 0.9mph /  1.4km/h 2mph /  3.2km/h 93% 0in /  0.0mm 30 W/m2
06:20 63.7 °F /  17.6 °C 61.7 °F /  16.5 °C 29.9in /  1012.2hPa Calm   1mph /  1.6km/h 93% 0in /  0.0mm 33 W/m2
06:26 63.7 °F /  17.6 °C 61.7 °F /  16.5 °C 29.9in /  1012.2hPa Calm     93% 0in /  0.0mm 32 W/m2
06:31 63.9 °F /  17.7 °C 61.9 °F /  16.6 °C 29.9in /  1011.9hPa Calm     93% 0in /  0.0mm 46 W/m2
06:36 63.9 °F /  17.7 °C 61.9 °F /  16.6 °C 29.9in /  1011.9hPa SE 0.9mph /  1.4km/h 2mph /  3.2km/h 93% 0in /  0.0mm 53 W/m2
06:41 64 °F /  17.8 °C 62.1 °F /  16.7 °C 29.9in /  1012.2hPa Calm     93% 0in /  0.0mm 56 W/m2
06:46 64 °F /  17.8 °C 62.1 °F /  16.7 °C 29.9in /  1012.2hPa Calm     93% 0in /  0.0mm 65 W/m2
06:51 64.2 °F /  17.9 °C 62.2 °F /  16.8 °C 29.9in /  1012.5hPa SE 0.9mph /  1.4km/h 2mph /  3.2km/h 93% 0in /  0.0mm 70 W/m2
06:56 64.6 °F /  18.1 °C 62.4 °F /  16.9 °C 29.9in /  1012.5hPa East 0.9mph /  1.4km/h 3mph /  4.8km/h 93% 0in /  0.0mm 62 W/m2
07:01 64.8 °F /  18.2 °C 62.4 °F /  16.9 °C 29.9in /  1012.2hPa ENE 2mph /  3.2km/h 3mph /  4.8km/h 92% 0in /  0.0mm 62 W/m2
07:06 64.9 °F /  18.3 °C 62.6 °F /  17 °C 29.9in /  1012.2hPa ENE 0.9mph /  1.4km/h 2mph /  3.2km/h 92% 0in /  0.0mm 69 W/m2
07:11 65.1 °F /  18.4 °C 62.8 °F /  17.1 °C 29.9in /  1012.5hPa Calm   3mph /  4.8km/h 92% 0in /  0.0mm 56 W/m2
07:16 65.5 °F /  18.6 °C 63.1 °F /  17.3 °C 29.9in /  1012.2hPa Calm   1mph /  1.6km/h 92% 0in /  0.0mm 39 W/m2
07:21 65.5 °F /  18.6 °C 63.1 °F /  17.3 °C 29.9in /  1012.2hPa Calm     92% 0in /  0.0mm 33 W/m2
07:26 65.7 °F /  18.7 °C 63.3 °F /  17.4 °C 29.9in /  1011.9hPa Calm     92% 0in /  0.0mm 39 W/m2
07:31 65.8 °F /  18.8 °C 63.5 °F /  17.5 °C 29.9in /  1011.9hPa ENE 2mph /  3.2km/h 2mph /  3.2km/h 92% 0in /  0.0mm 37 W/m2
07:36 65.8 °F /  18.8 °C 63.5 °F /  17.5 °C 29.9in /  1011.9hPa ENE 0.9mph /  1.4km/h 3mph /  4.8km/h 92% 0in /  0.0mm 40 W/m2
07:41 65.8 °F /  18.8 °C 63.5 °F /  17.5 °C 29.9in /  1011.9hPa Calm     92% 0in /  0.0mm 62 W/m2
07:46 65.8 °F /  18.8 °C 63.5 °F /  17.5 °C 29.9in /  1011.9hPa Calm     92% 0in /  0.0mm 83 W/m2
07:51 65.8 °F /  18.8 °C 63.5 °F /  17.5 °C 29.9in /  1011.9hPa Calm     92% 0in /  0.0mm 79 W/m2
07:56 66 °F /  18.9 °C 63.7 °F /  17.6 °C 29.9in /  1011.9hPa Calm   2mph /  3.2km/h 92% 0in /  0.0mm 83 W/m2
08:01 66 °F /  18.9 °C 63.7 °F /  17.6 °C 29.9in /  1011.9hPa Calm     92% 0in /  0.0mm 84 W/m2
08:06 66.2 °F /  19 °C 63.9 °F /  17.7 °C 29.9in /  1011.9hPa Calm     92% 0in /  0.0mm 100 W/m2
08:11 66.4 °F /  19.1 °C 64 °F /  17.8 °C 29.9in /  1011.9hPa Calm     92% 0in /  0.0mm 105 W/m2
08:16 66.6 °F /  19.2 °C 64.2 °F /  17.9 °C 29.9in /  1011.9hPa Calm     92% 0in /  0.0mm 114 W/m2
08:21 66.6 °F /  19.2 °C 63.9 °F /  17.7 °C 29.9in /  1012.2hPa WNW 0.9mph /  1.4km/h 3mph /  4.8km/h 91% 0in /  0.0mm 88 W/m2
08:26 66.7 °F /  19.3 °C 63.7 °F /  17.6 °C 29.9in /  1012.2hPa Calm     90% 0in /  0.0mm 104 W/m2
08:31 66.9 °F /  19.4 °C 63.9 °F /  17.7 °C 29.9in /  1012.2hPa NNW 0.9mph /  1.4km/h 3mph /  4.8km/h 90% 0in /  0.0mm 128 W/m2
08:36 67.3 °F /  19.6 °C 64.2 °F /  17.9 °C 29.9in /  1012.2hPa NNW 0.9mph /  1.4km/h 3mph /  4.8km/h 90% 0in /  0.0mm 148 W/m2
08:41 67.5 °F /  19.7 °C 64 °F /  17.8 °C 29.9in /  1012.2hPa Calm   2mph /  3.2km/h 89% 0in /  0.0mm 165 W/m2
08:46 67.6 °F /  19.8 °C 64.2 °F /  17.9 °C 29.9in /  1012.5hPa Calm   3mph /  4.8km/h 89% 0in /  0.0mm 169 W/m2
08:51 68.2 °F /  20.1 °C 64.4 °F /  18 °C 29.9in /  1012.5hPa North 2mph /  3.2km/h 3mph /  4.8km/h 88% 0in /  0.0mm 179 W/m2
08:56 68.4 °F /  20.2 °C 64.4 °F /  18 °C 29.9in /  1012.5hPa NNW 0.9mph /  1.4km/h 1mph /  1.6km/h 87% 0in /  0.0mm 192 W/m2
09:01 68.7 °F /  20.4 °C 64.4 °F /  18 °C 29.9in /  1012.5hPa West 0.9mph /  1.4km/h 4mph /  6.4km/h 86% 0in /  0.0mm 230 W/m2
09:06 69.3 °F /  20.7 °C 64.6 °F /  18.1 °C 29.9in /  1012.5hPa NW 2.9mph /  4.7km/h 7mph /  11.3km/h 85% 0in /  0.0mm 265 W/m2
09:11 69.6 °F /  20.9 °C 64.6 °F /  18.1 °C 29.9in /  1012.5hPa WNW 2mph /  3.2km/h 4mph /  6.4km/h 84% 0in /  0.0mm 213 W/m2
09:16 70 °F /  21.1 °C 64.2 °F /  17.9 °C 29.9in /  1012.9hPa WNW 4.9mph /  7.9km/h 5mph /  8km/h 82% 0in /  0.0mm 304 W/m2
09:21 70.2 °F /  21.2 °C 64.4 °F /  18 °C 29.9in /  1012.9hPa WNW 2.9mph /  4.7km/h 6mph /  9.7km/h 82% 0in /  0.0mm 373 W/m2
09:26 70.3 °F /  21.3 °C 64.2 °F /  17.9 °C 29.9in /  1013.2hPa WNW 4mph /  6.4km/h 5mph /  8km/h 81% 0in /  0.0mm 237 W/m2
09:31 70.3 °F /  21.3 °C 64.2 °F /  17.9 °C 29.9in /  1013.2hPa West 0.9mph /  1.4km/h 8mph /  12.9km/h 81% 0in /  0.0mm 362 W/m2
09:36 70.5 °F /  21.4 °C 64.8 °F /  18.2 °C 29.9in /  1013.2hPa NW 4mph /  6.4km/h 6mph /  9.7km/h 82% 0in /  0.0mm 274 W/m2
09:41 70.7 °F /  21.5 °C 64.6 °F /  18.1 °C 29.9in /  1013.2hPa WNW 2mph /  3.2km/h 3mph /  4.8km/h 81% 0in /  0.0mm 468 W/m2
09:46 70.9 °F /  21.6 °C 64.8 °F /  18.2 °C 29.9in /  1013.2hPa WSW 0.9mph /  1.4km/h 6mph /  9.7km/h 81% 0in /  0.0mm 244 W/m2
09:52 71.2 °F /  21.8 °C 64.4 °F /  18 °C 29.9in /  1013.2hPa SSW 2.9mph /  4.7km/h 5mph /  8km/h 79% 0in /  0.0mm 311 W/m2
09:57 71.4 °F /  21.9 °C 64.6 °F /  18.1 °C 29.9in /  1013.2hPa West 2.9mph /  4.7km/h 7mph /  11.3km/h 79% 0in /  0.0mm 343 W/m2
10:02 71.2 °F /  21.8 °C 63.7 °F /  17.6 °C 29.9in /  1013.2hPa West 6mph /  9.7km/h 12mph /  19.3km/h 77% 0in /  0.0mm 480 W/m2
10:07 71.2 °F /  21.8 °C 64 °F /  17.8 °C 29.9in /  1013.2hPa NW 2mph /  3.2km/h 4mph /  6.4km/h 78% 0in /  0.0mm 364 W/m2
10:12 71.6 °F /  22 °C 64.4 °F /  18 °C 29.9in /  1013.2hPa WNW 6.9mph /  11.1km/h 12mph /  19.3km/h 78% 0in /  0.0mm 301 W/m2
10:17 71.4 °F /  21.9 °C 63.9 °F /  17.7 °C 29.9in /  1013.2hPa NE 2mph /  3.2km/h 6mph /  9.7km/h 77% 0in /  0.0mm 271 W/m2
10:22 71.2 °F /  21.8 °C 64 °F /  17.8 °C 29.9in /  1013.2hPa West 2mph /  3.2km/h 3mph /  4.8km/h 78% 0in /  0.0mm 229 W/m2
10:27 71.2 °F /  21.8 °C 64 °F /  17.8 °C 29.9in /  1013.2hPa NNW 0.9mph /  1.4km/h 3mph /  4.8km/h 78% 0in /  0.0mm 218 W/m2
10:32 71.4 °F /  21.9 °C 64.2 °F /  17.9 °C 29.9in /  1012.9hPa NW 2.9mph /  4.7km/h 4mph /  6.4km/h 78% 0in /  0.0mm 251 W/m2
10:37 72 °F /  22.2 °C 64.4 °F /  18 °C 29.9in /  1012.9hPa NW 2.9mph /  4.7km/h 6mph /  9.7km/h 77% 0in /  0.0mm 680 W/m2
10:42 72.3 °F /  22.4 °C 64.8 °F /  18.2 °C 29.9in /  1012.9hPa West 2.9mph /  4.7km/h 3mph /  4.8km/h 77% 0in /  0.0mm 680 W/m2
10:47 72.3 °F /  22.4 °C 64.4 °F /  18 °C 29.9in /  1012.9hPa Calm   5mph /  8km/h 76% 0in /  0.0mm 601 W/m2
10:52 72.7 °F /  22.6 °C 64.2 °F /  17.9 °C 29.9in /  1012.9hPa ESE 0.9mph /  1.4km/h 2mph /  3.2km/h 75% 0in /  0.0mm 475 W/m2
10:57 73 °F /  22.8 °C 65.5 °F /  18.6 °C 29.9in /  1012.9hPa SW 0.9mph /  1.4km/h 2mph /  3.2km/h 77% 0in /  0.0mm 461 W/m2
11:02 73.6 °F /  23.1 °C 64.8 °F /  18.2 °C 29.9in /  1012.9hPa WSW 2mph /  3.2km/h 7mph /  11.3km/h 74% 0in /  0.0mm 559 W/m2
11:07 73.8 °F /  23.2 °C 64.6 °F /  18.1 °C 29.9in /  1012.9hPa NE 0.9mph /  1.4km/h 5mph /  8km/h 73% 0in /  0.0mm 705 W/m2
11:12 73.9 °F /  23.3 °C 65.1 °F /  18.4 °C 29.9in /  1012.9hPa NE 0.9mph /  1.4km/h 7mph /  11.3km/h 74% 0in /  0.0mm 817 W/m2
11:17 73.8 °F /  23.2 °C 64.6 °F /  18.1 °C 29.9in /  1012.9hPa WSW 2mph /  3.2km/h 3mph /  4.8km/h 73% 0in /  0.0mm 877 W/m2
11:22 73.2 °F /  22.9 °C 64.4 °F /  18 °C 29.9in /  1012.9hPa West 0.9mph /  1.4km/h 6mph /  9.7km/h 74% 0in /  0.0mm 427 W/m2
11:27 73.4 °F /  23 °C 64.6 °F /  18.1 °C 29.9in /  1012.9hPa ENE 2mph /  3.2km/h 4mph /  6.4km/h 74% 0in /  0.0mm 264 W/m2
11:32 73.8 °F /  23.2 °C 64.9 °F /  18.3 °C 29.9in /  1012.9hPa WSW 4mph /  6.4km/h 6mph /  9.7km/h 74% 0in /  0.0mm 819 W/m2
11:37 73.9 °F /  23.3 °C 64.4 °F /  18 °C 29.9in /  1012.9hPa NNW 2mph /  3.2km/h 4mph /  6.4km/h 72% 0in /  0.0mm 329 W/m2
11:42 73.9 °F /  23.3 °C 65.1 °F /  18.4 °C 29.9in /  1012.5hPa ENE 2mph /  3.2km/h 4mph /  6.4km/h 74% 0in /  0.0mm 443 W/m2
11:47 74.5 °F /  23.6 °C 65.3 °F /  18.5 °C 29.9in /  1012.5hPa NNW 4mph /  6.4km/h 4mph /  6.4km/h 73% 0in /  0.0mm 967 W/m2
11:52 74.7 °F /  23.7 °C 65.5 °F /  18.6 °C 29.9in /  1012.5hPa North 0.9mph /  1.4km/h 6mph /  9.7km/h 73% 0in /  0.0mm 262 W/m2
11:57 75.4 °F /  24.1 °C 65.7 °F /  18.7 °C 29.9in /  1012.5hPa Calm   7mph /  11.3km/h 72% 0in /  0.0mm 830 W/m2
12:02 75.7 °F /  24.3 °C 65.7 °F /  18.7 °C 29.9in /  1012.5hPa NNW 2mph /  3.2km/h 2mph /  3.2km/h 71% 0in /  0.0mm 853 W/m2
12:07 76.3 °F /  24.6 °C 65.8 °F /  18.8 °C 29.9in /  1012.5hPa WNW 2.9mph /  4.7km/h 8mph /  12.9km/h 70% 0in /  0.0mm 907 W/m2
12:12 76.3 °F /  24.6 °C 65.8 °F /  18.8 °C 29.9in /  1012.5hPa West 4mph /  6.4km/h 8mph /  12.9km/h 70% 0in /  0.0mm 348 W/m2
12:17 75.7 °F /  24.3 °C 65.7 °F /  18.7 °C 29.9in /  1012.5hPa North 0.9mph /  1.4km/h 7mph /  11.3km/h 71% 0in /  0.0mm 798 W/m2
12:22 75.6 °F /  24.2 °C 65.5 °F /  18.6 °C 29.9in /  1012.5hPa Calm   8mph /  12.9km/h 71% 0in /  0.0mm 798 W/m2
12:27 75.6 °F /  24.2 °C 65.8 °F /  18.8 °C 29.9in /  1012.9hPa WNW 2.9mph /  4.7km/h 10mph /  16.1km/h 72% 0in /  0.0mm 1004 W/m2
12:32 75.6 °F /  24.2 °C 65.5 °F /  18.6 °C 29.9in /  1012.9hPa NW 4.9mph /  7.9km/h 9mph /  14.5km/h 71% 0in /  0.0mm 912 W/m2
12:37 75.4 °F /  24.1 °C 65.7 °F /  18.7 °C 29.9in /  1012.5hPa WNW 4mph /  6.4km/h 6mph /  9.7km/h 72% 0in /  0.0mm 967 W/m2
12:42 75.9 °F /  24.4 °C 65.8 °F /  18.8 °C 29.9in /  1012.9hPa West 6mph /  9.7km/h 9mph /  14.5km/h 71% 0in /  0.0mm 1039 W/m2
12:47 76.5 °F /  24.7 °C 65.5 °F /  18.6 °C 29.9in /  1012.9hPa WNW 2mph /  3.2km/h 4mph /  6.4km/h 69% 0in /  0.0mm 367 W/m2
12:52 76.5 °F /  24.7 °C 65.1 °F /  18.4 °C 29.9in /  1012.5hPa NE 0.9mph /  1.4km/h 5mph /  8km/h 68% 0in /  0.0mm 946 W/m2
12:57 76.8 °F /  24.9 °C 65.5 °F /  18.6 °C 29.9in /  1012.9hPa West 4mph /  6.4km/h 8mph /  12.9km/h 68% 0in /  0.0mm 925 W/m2
13:02 77 °F /  25 °C 65.1 °F /  18.4 °C 29.9in /  1012.9hPa West 8.1mph /  13km/h 9mph /  14.5km/h 67% 0in /  0.0mm 940 W/m2
13:07 76.3 °F /  24.6 °C 64.9 °F /  18.3 °C 29.9in /  1012.9hPa NW 6.9mph /  11.1km/h 9mph /  14.5km/h 68% 0in /  0.0mm 1044 W/m2
13:12 76.3 °F /  24.6 °C 64.9 °F /  18.3 °C 29.9in /  1012.9hPa NW 8.9mph /  14.3km/h 12mph /  19.3km/h 68% 0in /  0.0mm 1014 W/m2
13:17 76.3 °F /  24.6 °C 64 °F /  17.8 °C 29.9in /  1012.9hPa WNW 2mph /  3.2km/h 8mph /  12.9km/h 66% 0in /  0.0mm 1030 W/m2
13:22 76.6 °F /  24.8 °C 64.4 °F /  18 °C 29.9in /  1012.9hPa WNW 2.9mph /  4.7km/h 12mph /  19.3km/h 66% 0in /  0.0mm 863 W/m2
13:27 77.2 °F /  25.1 °C 64.9 °F /  18.3 °C 29.9in /  1012.9hPa NNW 0.9mph /  1.4km/h 4mph /  6.4km/h 66% 0in /  0.0mm 851 W/m2
13:32 77.5 °F /  25.3 °C 64.8 °F /  18.2 °C 29.9in /  1012.9hPa NE 2mph /  3.2km/h 4mph /  6.4km/h 65% 0in /  0.0mm 816 W/m2
13:37 77.5 °F /  25.3 °C 64.4 °F /  18 °C 29.9in /  1012.5hPa WNW 0.9mph /  1.4km/h 7mph /  11.3km/h 64% 0in /  0.0mm 564 W/m2
13:42 77.5 °F /  25.3 °C 64.8 °F /  18.2 °C 29.9in /  1012.9hPa Calm   5mph /  8km/h 65% 0in /  0.0mm 798 W/m2
13:47 77.7 °F /  25.4 °C 64 °F /  17.8 °C 29.9in /  1012.9hPa WSW 2.9mph /  4.7km/h 7mph /  11.3km/h 63% 0in /  0.0mm 745 W/m2
13:52 77.5 °F /  25.3 °C 63.9 °F /  17.7 °C 29.9in /  1012.9hPa WNW 6.9mph /  11.1km/h 8mph /  12.9km/h 63% 0in /  0.0mm 650 W/m2
13:57 77.4 °F /  25.2 °C 63.9 °F /  17.7 °C 29.9in /  1012.5hPa WSW 2.9mph /  4.7km/h 7mph /  11.3km/h 63% 0in /  0.0mm 599 W/m2
14:02 77.4 °F /  25.2 °C 63.3 °F /  17.4 °C 29.9in /  1012.5hPa South 0.9mph /  1.4km/h 4mph /  6.4km/h 62% 0in /  0.0mm 680 W/m2
14:07 77.5 °F /  25.3 °C 63.5 °F /  17.5 °C 29.9in /  1012.9hPa WNW 2mph /  3.2km/h 7mph /  11.3km/h 62% 0in /  0.0mm 622 W/m2
14:12 77.7 °F /  25.4 °C 64 °F /  17.8 °C 29.9in /  1012.9hPa West 2.9mph /  4.7km/h 8mph /  12.9km/h 63% 0in /  0.0mm 534 W/m2
14:17 77.7 °F /  25.4 °C 63.1 °F /  17.3 °C 29.9in /  1012.9hPa West 2.9mph /  4.7km/h 6mph /  9.7km/h 61% 0in /  0.0mm 554 W/m2
14:22 77.5 °F /  25.3 °C 63.9 °F /  17.7 °C 29.9in /  1012.9hPa WNW 2mph /  3.2km/h 7mph /  11.3km/h 63% 0in /  0.0mm 740 W/m2
14:27 77.4 °F /  25.2 °C 64.8 °F /  18.2 °C 29.9in /  1012.9hPa NW 4mph /  6.4km/h 8mph /  12.9km/h 65% 0in /  0.0mm 682 W/m2
14:32 77.4 °F /  25.2 °C 64.2 °F /  17.9 °C 29.9in /  1012.9hPa NW 2mph /  3.2km/h 3mph /  4.8km/h 64% 0in /  0.0mm 548 W/m2
14:37 77.2 °F /  25.1 °C 64.6 °F /  18.1 °C 29.9in /  1012.9hPa West 6mph /  9.7km/h 8mph /  12.9km/h 65% 0in /  0.0mm 503 W/m2
14:42 76.8 °F /  24.9 °C 64.2 °F /  17.9 °C 29.9in /  1012.9hPa WNW 4.9mph /  7.9km/h 10mph /  16.1km/h 65% 0in /  0.0mm 483 W/m2
14:47 76.5 °F /  24.7 °C 64.8 °F /  18.2 °C 29.9in /  1012.9hPa WNW 2.9mph /  4.7km/h 4mph /  6.4km/h 67% 0in /  0.0mm 387 W/m2
14:52 76.6 °F /  24.8 °C 64.4 °F /  18 °C 29.9in /  1012.9hPa WSW 4mph /  6.4km/h 10mph /  16.1km/h 66% 0in /  0.0mm 397 W/m2
14:57 76.3 °F /  24.6 °C 64 °F /  17.8 °C 29.9in /  1012.9hPa WSW 0.9mph /  1.4km/h 8mph /  12.9km/h 66% 0in /  0.0mm 427 W/m2
15:02 76.1 °F /  24.5 °C 63.5 °F /  17.5 °C 29.9in /  1012.9hPa WNW 4mph /  6.4km/h 11mph /  17.7km/h 65% 0in /  0.0mm 422 W/m2
15:07 75.9 °F /  24.4 °C 64.2 °F /  17.9 °C 29.9in /  1012.9hPa WNW 2.9mph /  4.7km/h 8mph /  12.9km/h 67% 0in /  0.0mm 418 W/m2
15:12 75.9 °F /  24.4 °C 63.7 °F /  17.6 °C 29.9in /  1012.9hPa WNW 2mph /  3.2km/h 11mph /  17.7km/h 66% 0in /  0.0mm 408 W/m2
15:17 75.9 °F /  24.4 °C 63.7 °F /  17.6 °C 29.9in /  1012.9hPa WNW 2.9mph /  4.7km/h 9mph /  14.5km/h 66% 0in /  0.0mm 513 W/m2
15:22 75.7 °F /  24.3 °C 63.1 °F /  17.3 °C 29.9in /  1012.9hPa WNW 2mph /  3.2km/h 10mph /  16.1km/h 65% 0in /  0.0mm 466 W/m2
15:27 76.1 °F /  24.5 °C 63.9 °F /  17.7 °C 29.9in /  1012.9hPa WNW 4.9mph /  7.9km/h 7mph /  11.3km/h 66% 0in /  0.0mm 508 W/m2
15:32 76.3 °F /  24.6 °C 63.7 °F /  17.6 °C 29.9in /  1012.9hPa WNW 6.9mph /  11.1km/h 12mph /  19.3km/h 65% 0in /  0.0mm 376 W/m2
15:37 76.3 °F /  24.6 °C 63.7 °F /  17.6 °C 29.9in /  1012.9hPa NW 2mph /  3.2km/h 6mph /  9.7km/h 65% 0in /  0.0mm 396 W/m2
15:42 76.5 °F /  24.7 °C 63.3 °F /  17.4 °C 29.9in /  1012.9hPa SW 2.9mph /  4.7km/h 12mph /  19.3km/h 64% 0in /  0.0mm 364 W/m2
15:47 76.6 °F /  24.8 °C 63.1 °F /  17.3 °C 29.9in /  1012.9hPa WNW 6mph /  9.7km/h 8mph /  12.9km/h 63% 0in /  0.0mm 399 W/m2
15:52 76.6 °F /  24.8 °C 62.2 °F /  16.8 °C 29.9in /  1012.9hPa NNW 4mph /  6.4km/h 9mph /  14.5km/h 61% 0in /  0.0mm 332 W/m2
15:57 76.5 °F /  24.7 °C 62.1 °F /  16.7 °C 29.9in /  1012.9hPa West 6mph /  9.7km/h 7mph /  11.3km/h 61% 0in /  0.0mm 332 W/m2
16:02 76.5 °F /  24.7 °C 62.4 °F /  16.9 °C 29.9in /  1012.9hPa SW 2.9mph /  4.7km/h 7mph /  11.3km/h 62% 0in /  0.0mm 408 W/m2
16:07 76.6 °F /  24.8 °C 62.2 °F /  16.8 °C 29.9in /  1012.5hPa SW 2mph /  3.2km/h 3mph /  4.8km/h 61% 0in /  0.0mm 392 W/m2
16:12 77.2 °F /  25.1 °C 62.6 °F /  17 °C 29.9in /  1012.5hPa West 2.9mph /  4.7km/h 3mph /  4.8km/h 61% 0in /  0.0mm 439 W/m2
16:17 77.2 °F /  25.1 °C 61.3 °F /  16.3 °C 29.9in /  1012.5hPa WSW 4mph /  6.4km/h 7mph /  11.3km/h 58% 0in /  0.0mm 434 W/m2
16:22 77.2 °F /  25.1 °C 61.3 °F /  16.3 °C 29.9in /  1012.5hPa West 4mph /  6.4km/h 6mph /  9.7km/h 58% 0in /  0.0mm 441 W/m2
16:27 77.4 °F /  25.2 °C 61.3 °F /  16.3 °C 29.9in /  1012.5hPa NW 2.9mph /  4.7km/h 8mph /  12.9km/h 58% 0in /  0.0mm 420 W/m2
16:32 77.2 °F /  25.1 °C 61.7 °F /  16.5 °C 29.9in /  1012.5hPa WNW 6mph /  9.7km/h 8mph /  12.9km/h 59% 0in /  0.0mm 357 W/m2
16:37 77 °F /  25 °C 62.6 °F /  17 °C 29.9in /  1012.5hPa WNW 2.9mph /  4.7km/h 4mph /  6.4km/h 61% 0in /  0.0mm 380 W/m2
16:42 77.2 °F /  25.1 °C 62.6 °F /  17 °C 29.9in /  1012.5hPa WNW 4mph /  6.4km/h 8mph /  12.9km/h 61% 0in /  0.0mm 403 W/m2
16:47 77 °F /  25 °C 61.5 °F /  16.4 °C 29.9in /  1012.9hPa SSW 2mph /  3.2km/h 5mph /  8km/h 59% 0in /  0.0mm 290 W/m2
16:52 76.8 °F /  24.9 °C 62.8 °F /  17.1 °C 29.9in /  1012.9hPa West 2mph /  3.2km/h 4mph /  6.4km/h 62% 0in /  0.0mm 269 W/m2
16:57 76.8 °F /  24.9 °C 61.9 °F /  16.6 °C 29.9in /  1012.9hPa WSW 2.9mph /  4.7km/h 4mph /  6.4km/h 60% 0in /  0.0mm 292 W/m2
17:02 76.6 °F /  24.8 °C 62.2 °F /  16.8 °C 29.9in /  1012.5hPa WNW 4mph /  6.4km/h 4mph /  6.4km/h 61% 0in /  0.0mm 234 W/m2
17:07 76.5 °F /  24.7 °C 61.5 °F /  16.4 °C 29.9in /  1012.5hPa WNW 4mph /  6.4km/h 6mph /  9.7km/h 60% 0in /  0.0mm 221 W/m2
17:12 76.3 °F /  24.6 °C 62.2 °F /  16.8 °C 29.9in /  1012.9hPa West 2mph /  3.2km/h 4mph /  6.4km/h 62% 0in /  0.0mm 246 W/m2
17:17 76.3 °F /  24.6 °C 62.2 °F /  16.8 °C 29.9in /  1012.5hPa West 2mph /  3.2km/h 2mph /  3.2km/h 62% 0in /  0.0mm 279 W/m2
17:22 76.5 °F /  24.7 °C 61.5 °F /  16.4 °C 29.9in /  1012.5hPa West 2mph /  3.2km/h 3mph /  4.8km/h 60% 0in /  0.0mm 320 W/m2
17:27 76.6 °F /  24.8 °C 61.2 °F /  16.2 °C 29.9in /  1012.5hPa NW 0.9mph /  1.4km/h 2mph /  3.2km/h 59% 0in /  0.0mm 403 W/m2
17:32 77 °F /  25 °C 62.1 °F /  16.7 °C 29.9in /  1012.5hPa WSW 2.9mph /  4.7km/h 4mph /  6.4km/h 60% 0in /  0.0mm 350 W/m2
17:37 76.8 °F /  24.9 °C 61.9 °F /  16.6 °C 29.9in /  1012.5hPa NW 2mph /  3.2km/h 4mph /  6.4km/h 60% 0in /  0.0mm 403 W/m2
17:42 77 °F /  25 °C 62.1 °F /  16.7 °C 29.9in /  1012.2hPa West 0.9mph /  1.4km/h 5mph /  8km/h 60% 0in /  0.0mm 366 W/m2
17:47 77.2 °F /  25.1 °C 62.6 °F /  17 °C 29.9in /  1012.2hPa NW 2mph /  3.2km/h 2mph /  3.2km/h 61% 0in /  0.0mm 362 W/m2
17:52 77.2 °F /  25.1 °C 62.6 °F /  17 °C 29.9in /  1012.2hPa WSW 2mph /  3.2km/h 4mph /  6.4km/h 61% 0in /  0.0mm 308 W/m2
17:57 77.2 °F /  25.1 °C 63.1 °F /  17.3 °C 29.9in /  1012.2hPa WSW 0.9mph /  1.4km/h 2mph /  3.2km/h 62% 0in /  0.0mm 246 W/m2
18:02 77.4 °F /  25.2 °C 63.9 °F /  17.7 °C 29.9in /  1012.2hPa Calm   4mph /  6.4km/h 63% 0in /  0.0mm 204 W/m2
18:07 77.4 °F /  25.2 °C 63.3 °F /  17.4 °C 29.9in /  1012.2hPa Calm   2mph /  3.2km/h 62% 0in /  0.0mm 169 W/m2
18:12 77.2 °F /  25.1 °C 63.7 °F /  17.6 °C 29.9in /  1011.9hPa East 0.9mph /  1.4km/h 1mph /  1.6km/h 63% 0in /  0.0mm 121 W/m2
18:17 76.8 °F /  24.9 °C 62.8 °F /  17.1 °C 29.9in /  1011.9hPa WNW 0.9mph /  1.4km/h 3mph /  4.8km/h 62% 0in /  0.0mm 109 W/m2
18:22 76.5 °F /  24.7 °C 63.9 °F /  17.7 °C 29.9in /  1011.9hPa West 0.9mph /  1.4km/h 3mph /  4.8km/h 65% 0in /  0.0mm 130 W/m2
18:27 76.3 °F /  24.6 °C 64.6 °F /  18.1 °C 29.9in /  1011.9hPa NNW 0.9mph /  1.4km/h 1mph /  1.6km/h 67% 0in /  0.0mm 158 W/m2
18:32 76.1 °F /  24.5 °C 65.1 °F /  18.4 °C 29.9in /  1011.9hPa ENE 0.9mph /  1.4km/h 2mph /  3.2km/h 69% 0in /  0.0mm 169 W/m2
18:37 75.7 °F /  24.3 °C 65.3 °F /  18.5 °C 29.9in /  1011.9hPa West 2mph /  3.2km/h 2mph /  3.2km/h 70% 0in /  0.0mm 174 W/m2
18:42 75.4 °F /  24.1 °C 65.7 °F /  18.7 °C 29.9in /  1011.5hPa ESE 2.9mph /  4.7km/h 4mph /  6.4km/h 72% 0in /  0.0mm 155 W/m2
18:47 75.2 °F /  24 °C 65.5 °F /  18.6 °C 29.9in /  1011.5hPa Calm   1mph /  1.6km/h 72% 0in /  0.0mm 202 W/m2
18:52 75.4 °F /  24.1 °C 66.2 °F /  19 °C 29.9in /  1011.9hPa Calm   4mph /  6.4km/h 73% 0in /  0.0mm 190 W/m2
18:57 75.4 °F /  24.1 °C 66.2 °F /  19 °C 29.9in /  1011.5hPa Calm     73% 0in /  0.0mm 134 W/m2
19:02 75.4 °F /  24.1 °C 66.2 °F /  19 °C 29.9in /  1011.5hPa ESE 2mph /  3.2km/h 2mph /  3.2km/h 73% 0in /  0.0mm 135 W/m2
19:07 75.4 °F /  24.1 °C 66.2 °F /  19 °C 29.9in /  1011.2hPa Calm     73% 0in /  0.0mm 114 W/m2
19:12 75.2 °F /  24 °C 65.1 °F /  18.4 °C 29.9in /  1011.2hPa Calm     71% 0in /  0.0mm 93 W/m2
19:17 75.4 °F /  24.1 °C 66.2 °F /  19 °C 29.9in /  1011.5hPa Calm     73% 0in /  0.0mm 69 W/m2
19:22 75.4 °F /  24.1 °C 66.6 °F /  19.2 °C 29.9in /  1011.5hPa Calm     74% 0in /  0.0mm 67 W/m2
19:27 75.2 °F /  24 °C 66.4 °F /  19.1 °C 29.9in /  1011.9hPa Calm     74% 0in /  0.0mm 69 W/m2
19:32 75 °F /  23.9 °C 66.2 °F /  19 °C 29.9in /  1011.9hPa East 2.9mph /  4.7km/h 4mph /  6.4km/h 74% 0in /  0.0mm 60 W/m2
19:37 74.7 °F /  23.7 °C 65.5 °F /  18.6 °C 29.9in /  1011.9hPa East 2.9mph /  4.7km/h 4mph /  6.4km/h 73% 0in /  0.0mm 58 W/m2
19:42 73.9 °F /  23.3 °C 64.8 °F /  18.2 °C 29.9in /  1011.9hPa SE 4.9mph /  7.9km/h 5mph /  8km/h 73% 0in /  0.0mm 65 W/m2
19:47 73.2 °F /  22.9 °C 64 °F /  17.8 °C 29.9in /  1011.9hPa SE 2.9mph /  4.7km/h 8mph /  12.9km/h 73% 0in /  0.0mm 67 W/m2
19:52 72.3 °F /  22.4 °C 63.9 °F /  17.7 °C 29.9in /  1011.9hPa East 2mph /  3.2km/h 6mph /  9.7km/h 75% 0in /  0.0mm 81 W/m2
19:57 71.8 °F /  22.1 °C 63.9 °F /  17.7 °C 29.9in /  1011.5hPa East 6mph /  9.7km/h 6mph /  9.7km/h 76% 0in /  0.0mm 86 W/m2
20:03 71.2 °F /  21.8 °C 64 °F /  17.8 °C 29.9in /  1011.5hPa ESE 0.9mph /  1.4km/h 3mph /  4.8km/h 78% 0in /  0.0mm 74 W/m2
20:08 71.1 °F /  21.7 °C 64.2 °F /  17.9 °C 29.9in /  1011.5hPa ESE 4mph /  6.4km/h 6mph /  9.7km/h 79% 0in /  0.0mm 62 W/m2
20:13 70.9 °F /  21.6 °C 64 °F /  17.8 °C 29.9in /  1011.5hPa East 2mph /  3.2km/h 3mph /  4.8km/h 79% 0in /  0.0mm 49 W/m2
20:18 70.7 °F /  21.5 °C 64.2 °F /  17.9 °C 29.9in /  1011.9hPa ESE 2mph /  3.2km/h 6mph /  9.7km/h 80% 0in /  0.0mm 46 W/m2
20:23 70.5 °F /  21.4 °C 64 °F /  17.8 °C 29.9in /  1011.9hPa ESE 2mph /  3.2km/h 4mph /  6.4km/h 80% 0in /  0.0mm 33 W/m2
20:28 70.3 °F /  21.3 °C 63.9 °F /  17.7 °C 29.9in /  1011.9hPa ENE 2mph /  3.2km/h 6mph /  9.7km/h 80% 0in /  0.0mm 26 W/m2
20:33 70.2 °F /  21.2 °C 63.3 °F /  17.4 °C 29.9in /  1011.9hPa ENE 4mph /  6.4km/h 7mph /  11.3km/h 79% 0in /  0.0mm 21 W/m2
20:38 69.8 °F /  21 °C 63 °F /  17.2 °C 29.9in /  1011.9hPa SE 2.9mph /  4.7km/h 6mph /  9.7km/h 79% 0in /  0.0mm 23 W/m2
20:43 69.6 °F /  20.9 °C 63.1 °F /  17.3 °C 29.9in /  1011.9hPa NNE 2.9mph /  4.7km/h 3mph /  4.8km/h 80% 0in /  0.0mm 23 W/m2
20:48 69.4 °F /  20.8 °C 63 °F /  17.2 °C 29.9in /  1011.9hPa ESE 2.9mph /  4.7km/h 6mph /  9.7km/h 80% 0in /  0.0mm 23 W/m2
20:53 69.3 °F /  20.7 °C 63.1 °F /  17.3 °C 29.9in /  1011.5hPa Calm   6mph /  9.7km/h 81% 0in /  0.0mm 21 W/m2
20:58 69.1 °F /  20.6 °C 63 °F /  17.2 °C 29.9in /  1011.5hPa ESE 0.9mph /  1.4km/h 3mph /  4.8km/h 81% 0in /  0.0mm 14 W/m2
21:03 69.1 °F /  20.6 °C 63.3 °F /  17.4 °C 29.9in /  1011.5hPa ENE 2mph /  3.2km/h 6mph /  9.7km/h 82% 0in /  0.0mm 11 W/m2
21:08 68.7 °F /  20.4 °C 63 °F /  17.2 °C 29.9in /  1011.5hPa ESE 2.9mph /  4.7km/h 3mph /  4.8km/h 82% 0in /  0.0mm 12 W/m2
21:13 68.7 °F /  20.4 °C 63 °F /  17.2 °C 29.9in /  1011.5hPa ESE 0.9mph /  1.4km/h 2mph /  3.2km/h 82% 0in /  0.0mm 9 W/m2
21:18 68.5 °F /  20.3 °C 62.8 °F /  17.1 °C 29.9in /  1011.5hPa ESE 0.9mph /  1.4km/h 3mph /  4.8km/h 82% 0in /  0.0mm 7 W/m2
21:23 68.5 °F /  20.3 °C 62.8 °F /  17.1 °C 29.9in /  1011.9hPa ESE 0.9mph /  1.4km/h 2mph /  3.2km/h 82% 0in /  0.0mm 5 W/m2
21:28 68.4 °F /  20.2 °C 62.6 °F /  17 °C 29.9in /  1011.9hPa Calm   1mph /  1.6km/h 82% 0in /  0.0mm 0 W/m2
21:33 68.4 °F /  20.2 °C 63 °F /  17.2 °C 29.9in /  1011.9hPa Calm     83% 0in /  0.0mm 0 W/m2
21:38 68.2 °F /  20.1 °C 62.8 °F /  17.1 °C 29.9in /  1011.5hPa Calm   1mph /  1.6km/h 83% 0in /  0.0mm 0 W/m2
21:43 68.2 °F /  20.1 °C 62.8 °F /  17.1 °C 29.9in /  1011.9hPa Calm   1mph /  1.6km/h 83% 0in /  0.0mm 0 W/m2
21:48 68 °F /  20 °C 62.6 °F /  17 °C 29.9in /  1012.2hPa WNW 0.9mph /  1.4km/h 4mph /  6.4km/h 83% 0in /  0.0mm 0 W/m2
21:53 67.8 °F /  19.9 °C 62.4 °F /  16.9 °C 29.9in /  1012.2hPa ENE 2mph /  3.2km/h 4mph /  6.4km/h 83% 0in /  0.0mm 0 W/m2
21:58 67.8 °F /  19.9 °C 62.1 °F /  16.7 °C 29.9in /  1011.9hPa ENE 2mph /  3.2km/h 3mph /  4.8km/h 82% 0in /  0.0mm 0 W/m2
22:03 67.8 °F /  19.9 °C 62.1 °F /  16.7 °C 29.9in /  1011.9hPa East 0.9mph /  1.4km/h 1mph /  1.6km/h 82% 0in /  0.0mm 0 W/m2
22:08 67.8 °F /  19.9 °C 62.1 °F /  16.7 °C 29.9in /  1011.9hPa East 0.9mph /  1.4km/h 1mph /  1.6km/h 82% 0in /  0.0mm 0 W/m2
22:13 67.8 °F /  19.9 °C 62.1 °F /  16.7 °C 29.9in /  1012.2hPa Calm   1mph /  1.6km/h 82% 0in /  0.0mm 0 W/m2
22:18 67.6 °F /  19.8 °C 62.2 °F /  16.8 °C 29.9in /  1012.5hPa Calm     83% 0in /  0.0mm 0 W/m2
22:23 67.6 °F /  19.8 °C 62.2 °F /  16.8 °C 29.9in /  1012.2hPa NE 0.9mph /  1.4km/h 2mph /  3.2km/h 83% 0in /  0.0mm 0 W/m2
22:28 67.5 °F /  19.7 °C 61.7 °F /  16.5 °C 29.9in /  1012.2hPa Calm   1mph /  1.6km/h 82% 0in /  0.0mm 0 W/m2
22:33 67.5 °F /  19.7 °C 62.1 °F /  16.7 °C 29.9in /  1012.5hPa Calm     83% 0in /  0.0mm 0 W/m2
22:38 67.3 °F /  19.6 °C 61.9 °F /  16.6 °C 29.9in /  1012.2hPa Calm     83% 0in /  0.0mm 0 W/m2
22:43 67.1 °F /  19.5 °C 61.7 °F /  16.5 °C 29.9in /  1012.5hPa Calm     83% 0in /  0.0mm 0 W/m2
22:48 66.7 °F /  19.3 °C 61.7 °F /  16.5 °C 29.9in /  1012.5hPa Calm     84% 0in /  0.0mm 0 W/m2
22:53 66.6 °F /  19.2 °C 61.5 °F /  16.4 °C 29.9in /  1012.9hPa Calm     84% 0in /  0.0mm 0 W/m2
22:58 66.4 °F /  19.1 °C 61.7 °F /  16.5 °C 29.9in /  1012.9hPa Calm     85% 0in /  0.0mm 0 W/m2
23:03 66.2 °F /  19 °C 61.5 °F /  16.4 °C 29.9in /  1012.9hPa Calm     85% 0in /  0.0mm 0 W/m2
23:08 66 °F /  18.9 °C 61.3 °F /  16.3 °C 29.9in /  1012.9hPa ENE 0.9mph /  1.4km/h 1mph /  1.6km/h 85% 0in /  0.0mm 0 W/m2
23:13 65.8 °F /  18.8 °C 61.5 °F /  16.4 °C 29.9in /  1012.9hPa Calm   1mph /  1.6km/h 86% 0in /  0.0mm 0 W/m2
23:18 65.8 °F /  18.8 °C 61.5 °F /  16.4 °C 29.9in /  1012.9hPa Calm     86% 0in /  0.0mm 0 W/m2
23:23 65.7 °F /  18.7 °C 61.7 °F /  16.5 °C 29.9in /  1012.9hPa Calm   1mph /  1.6km/h 87% 0in /  0.0mm 0 W/m2
23:28 65.7 °F /  18.7 °C 61.7 °F /  16.5 °C 29.9in /  1012.9hPa Calm     87% 0in /  0.0mm 0 W/m2
23:33 65.5 °F /  18.6 °C 61.5 °F /  16.4 °C 29.9in /  1012.9hPa Calm     87% 0in /  0.0mm 0 W/m2
23:38 65.5 °F /  18.6 °C 61.5 °F /  16.4 °C 29.9in /  1012.9hPa Calm     87% 0in /  0.0mm 0 W/m2
23:43 65.3 °F /  18.5 °C 61.3 °F /  16.3 °C 29.9in /  1012.9hPa Calm     87% 0in /  0.0mm 0 W/m2
23:48 65.1 °F /  18.4 °C 61.5 °F /  16.4 °C 29.9in /  1012.9hPa Calm   1mph /  1.6km/h 88% 0in /  0.0mm 0 W/m2
23:53 65.1 °F /  18.4 °C 61.5 °F /  16.4 °C 29.9in /  1012.5hPa Calm     88% 0in /  0.0mm 0 W/m2
23:58 64.9 °F /  18.3 °C 61.3 °F /  16.3 °C 29.9in /  1012.9hPa Calm   1mph /  1.6km/h 88% 0in /  0.0mm 0 W/m2
Juneau County Weather
Compliments of Weather Underground - 4 mb